Terminal Aerodrome Forecast
Issued by NWS Portland, OR

Home | Current Version | Previous Version | Text Only | Print | Product List | Glossary On
Versions: 1 2 3 4 5 6 7 8 9 10 11 12 13
000
FTUS46 KPQR 011741
TAFEUG
TAF
KEUG 011741Z 0118/0218 19015G23KT P6SM SCT035 BKN060
      TEMPO 0118/0122 -SHRA BKN035
     FM020100 18007KT P6SM -SHRA BKN050
     FM020800 17004KT P6SM -SHRA BKN035=

USA.gov is the U.S. government's official web portal to all federal, state and local government web resources and services.